Record high temperature 35.2°C Record low temperature -28.5°C Record high gust 73.6 km/h Record high average 52.2 km/h Record daily rain 78.0 mm Record low windchill -39.6°C Record high barometer 1045.2 hPa Record low barometer 973.0 hPa
Daily high pressure 1029 hPa Daily low pressure 1019 hPa Daily low windchill 7.0°C Daily high heat index 16.5°C Daily high gust speed 14.0 kmh WNW Daily high average speed 7.2 kmh WSW
Beaconsfield Home Weather Data WMR-968
LAST READING AT TIME: 22:20 DATE: September 23 2014, time of next update: 22:25
Current WeatherNight time/Dry/A few clouds Current Temperature 13.1°C (55.6°F), Apparent temp 12.7°C
Maximum Temperature (since midnight)16.5°C at: 15:22 Minimum Temperature (since midnight)7.9°C at: 01:40
Average windspeed (ten minute)0.0 kmh (0.0 kts) Wind Direction (ten minute)W (270°)
Windchill Temperature 13.1°C Maximum Gust (last hour)0.0 kmh (0.0 kts) at: 22:00
Maximum Gust (since midnight)14.0 kmh (7.6 kts) at: 14:20 Maximum 1 minute average (since midnight)7.2 kmh (3.9 kts) at: 14:15
Rainfall (last hour)0.0 mm Rainfall (since midnight)0.8 mm (0.03 in.) at 06:45
Rainfall This month 54.4 mm (2.14 in.) Rainfall To date this year 621.4 mm (24.46 in.)
Maximum rain per minute (last hour)0.0 mm/min Maximum rain per hour (last 6 hours)0.0 mm/hour
Yesterdays rainfall 0.2 mm DewPoint 5.5°C (Wet Bulb :9.5°C )
Humidity 60 %, Humidex 12.6°C Barometer corrected to msl1029 hPa
Pressure change +1 hPa (last hour) Trend (last hour)RISING SLOWLY
Pressure change (last 12 hours)+7 hPa Pressure change (last 6 hours)+5 hPa
Current Indoor Temp. 20.7°C
Current Indoor Hum. 49%
Current 00:00 hours of sunshine today, current sky: Night time/Dry/A few clouds
Sunshine hours for the year: 46:04 hrs Sunshine hours for the month: 00:07 hrs
Current evapotranspiration rate 1.7 mm per day. Yesterday's reading 2.5




Weather report/warning/Metars

Montreal / Pierre Elliot Trudeau International Airport, Que, Canada (CYUL) 45-28N 073-45W 36M
Sep 23, 2014 - 10:00 PM EDT / 2014.09.24 0200 UTC
Wind: from the WSW (240 degrees) at 6 MPH (5 KT):0
Visibility: 15 mile(s):0
Sky conditions: mostly clear
Temperature: 55 F (13 C)
Dew Point: 51 F (11 C)
Relative Humidity: 87%
Pressure (altimeter): 30.38 in. Hg (1028 hPa)
ob: CYUL 240200Z 24005KT 15SM FEW070 13/11 A3038 RMK AC1 SLP287
cycle: 2
Sherbrooke, Que., Canada (CYSC) 45-24N 071-53W
Sep 23, 2014 - 10:08 PM EDT / 2014.09.24 0208 UTC
Wind: Variable at 2 MPH (2 KT):0
Visibility: 3/4 mile(s):0
Sky conditions: clear
Weather: mist
Temperature: 44 F (7 C)
Dew Point: 42 F (6 C)
Relative Humidity: 93%
Pressure (altimeter): 30.39 in. Hg (1029 hPa)
ob: CYSC 240208Z AUTO VRB02KT 3/4SM BR CLR 07/06 A3039 RMK SLP297
cycle: 2
St Jovite Automatic Weather Reporting System , Canada (CWJT) 46-04N 074-32W
Sep 23, 2014 - 10:00 PM EDT / 2014.09.24 0200 UTC
Wind: from the ENE (060 degrees) at 1 MPH (1 KT):0
Temperature: 44.4 F (6.9 C)
Dew Point: 43.5 F (6.4 C)
Relative Humidity: 96%
Pressure tendency: 0.09 inches (2.9 hPa) higher than three hours ago
ob: CWJT 240200Z AUTO 06001KT 07/06 RMK AO1 SLP295 T00690064 52029
cycle: 2
Ste Anne De Bell 1, Canada (CWVQ) 45-26N 073-56W
Sep 23, 2014 - 10:00 PM EDT / 2014.09.24 0200 UTC
Wind: from the WSW (240 degrees) at 5 MPH (4 KT):0
Temperature: 55.2 F (12.9 C)
Dew Point: 51.6 F (10.9 C)
Relative Humidity: 87%
Pressure tendency: 0.07 inches (2.3 hPa) higher than three hours ago
ob: CWVQ 240200Z AUTO 24004KT 13/11 RMK AO1 SLP287 T01290109 51023
cycle: 2
Montreal / Mirabel, Canada (CYMX) 45-41N 074-02W
Sep 23, 2014 - 09:00 PM EDT / 2014.09.24 0100 UTC
Wind: Variable at 2 MPH (2 KT):0
Visibility: 25 mile(s):0
Sky conditions: mostly clear
Temperature: 51 F (11 C)
Dew Point: 50 F (10 C)
Relative Humidity: 93%
Pressure (altimeter): 30.37 in. Hg (1028 hPa)
ob: CYMX 240100Z VRB02KT 25SM FEW260 11/10 A3037 RMK CI1 SLP286
cycle: 1
L'Acadie, Canada (CWIZ) 45-18N 073-21W
Sep 23, 2014 - 10:00 PM EDT / 2014.09.24 0200 UTC
Wind: from the SSW (210 degrees) at 2 MPH (2 KT):0
Temperature: 49.5 F (9.7 C)
Dew Point: 48.6 F (9.2 C)
Relative Humidity: 96%
ob: CWIZ 240200Z AUTO 21002KT 10/09 RMK AO1 T00970092
cycle: 2
St Anicet, Canada (CWBZ) 45-07N 074-17W 49M
Sep 23, 2014 - 10:00 PM EDT / 2014.09.24 0200 UTC
Wind: from the SE (130 degrees) at 1 MPH (1 KT):0
Temperature: 48.0 F (8.9 C)
Dew Point: 45.5 F (7.5 C)
Relative Humidity: 90%
Pressure tendency: 0.06 inches (2.2 hPa) higher than three hours ago
ob: CWBZ 240200Z AUTO 13001KT 09/08 RMK AO1 SLP288 T00890075 51022
cycle: 2
Mount Washington, NH, United States (KMWN) 44-16N 071-18W 1910M
Sep 23, 2014 - 09:49 PM EDT / 2014.09.24 0149 UTC
Wind: from the NW (320 degrees) at 40 MPH (35 KT) gusting to 51 MPH (44 KT):0
Visibility: less than 1 mile:0
Sky conditions: obscured
Weather: fog
Temperature: 33 F (1 C)
Windchill: 17 F (-8 C):1
Dew Point: 33 F (1 C)
Relative Humidity: 100%
ob: KMWN 240149Z 32035G44KT 0SM FG VV000 01/01 RMK 
cycle: 2
Vancouver International Air-Port, B. C., Canada (CYVR) 49-11N 123-10W 2M
Sep 23, 2014 - 10:00 PM EDT / 2014.09.24 0200 UTC
Wind: from the ESE (110 degrees) at 15 MPH (13 KT):0
Visibility: 12 mile(s):0
Sky conditions: overcast
Weather: light rain showers
Temperature: 62 F (17 C)
Dew Point: 60 F (16 C)
Relative Humidity: 93%
Pressure (altimeter): 29.75 in. Hg (1007 hPa)
ob: CYVR 240200Z 11013KT 12SM -SHRA FEW020 BKN035 OVC100 17/16 A2975 RMK SC2SC4AC2 CVCTV CLD EMBD SLP073 DENSITY ALT 400FT
cycle: 2



The data is logged at two minute intervals, but there is data recorded every minute.

Use the RELOAD facility on your browser to retrieve the latest data.

Click here for a daily update of the averages/extremes to date for the month

Click here for Real Time Weather



Created by "Weather Display" software version 10.37R Build 51 at this start time/date 00:22 2014-09-21